createdAt,value
2023-05-02T00:02:26.089Z,100753.75
2023-05-02T00:04:53.902Z,100748.28
2023-05-02T00:07:21.957Z,100691.06
2023-05-02T00:09:49.704Z,100701.28
2023-05-02T00:12:17.452Z,100715.31
2023-05-02T00:14:45.198Z,100728.63
2023-05-02T00:17:20.653Z,100723.16
2023-05-02T00:19:48.590Z,100709.38
2023-05-02T00:22:16.472Z,100714.75
2023-05-02T00:24:44.374Z,100657.88
2023-05-02T00:27:12.038Z,100701.00
2023-05-02T00:29:41.035Z,100645.91
2023-05-02T00:32:09.242Z,100696.91
2023-05-02T00:34:37.001Z,100641.38
2023-05-02T00:37:04.888Z,100669.72
2023-05-02T00:39:34.168Z,100679.50
2023-05-02T00:42:02.307Z,100677.59
2023-05-02T00:44:30.129Z,100676.66
2023-05-02T00:46:58.908Z,100665.44
2023-05-02T00:49:26.639Z,100675.84
2023-05-02T00:51:55.222Z,100661.81
2023-05-02T00:54:23.145Z,100652.28
2023-05-02T00:56:51.256Z,100632.13
2023-05-02T00:59:19.062Z,100648.03
2023-05-02T01:02:07.760Z,100672.59
2023-05-02T01:05:00.565Z,100656.81
2023-05-02T01:07:28.260Z,100654.09
2023-05-02T01:10:15.114Z,100658.44
2023-05-02T01:12:52.460Z,100645.56
2023-05-02T01:15:22.859Z,100643.00
2023-05-02T01:17:52.715Z,100642.53
2023-05-02T01:20:28.909Z,100628.47
2023-05-02T01:23:04.855Z,100636.56
2023-05-02T01:25:45.239Z,100635.25
2023-05-02T01:28:34.736Z,100598.22
2023-05-02T01:31:04.519Z,100605.72
2023-05-02T01:33:35.824Z,100583.03
2023-05-02T01:36:04.018Z,100619.28
2023-05-02T01:38:34.910Z,100600.88
2023-05-02T01:41:05.540Z,100585.34
2023-05-02T01:43:35.087Z,100629.97
2023-05-02T01:46:05.253Z,100578.56
2023-05-02T01:48:33.242Z,100594.78
2023-05-02T01:51:03.655Z,100592.34
2023-05-02T01:53:34.703Z,100545.25
2023-05-02T01:56:03.979Z,100617.03
2023-05-02T01:58:34.769Z,100618.78
2023-05-02T02:01:04.948Z,100592.97
2023-05-02T02:03:33.801Z,100587.50
2023-05-02T02:06:03.939Z,100630.22
2023-05-02T02:08:31.856Z,100608.34
2023-05-02T02:11:04.593Z,100630.72
2023-05-02T02:13:39.254Z,100586.88
2023-05-02T02:16:13.115Z,100623.13
2023-05-02T02:18:45.118Z,100586.28
2023-05-02T02:21:17.349Z,100559.88
2023-05-02T02:23:49.786Z,100592.56
2023-05-02T02:26:22.430Z,100629.09
2023-05-02T02:28:50.730Z,100599.31
2023-05-02T02:31:18.491Z,100569.41
2023-05-02T02:33:46.395Z,100615.03
2023-05-02T02:36:33.525Z,100616.03
2023-05-02T02:39:04.073Z,100608.75
2023-05-02T02:41:46.125Z,100580.44
2023-05-02T02:44:28.812Z,100613.81
2023-05-02T02:47:02.790Z,100619.28
2023-05-02T02:50:17.392Z,100615.72
2023-05-02T02:52:48.369Z,100611.66
2023-05-02T02:55:40.819Z,100616.34
2023-05-02T02:58:15.390Z,100600.25
2023-05-02T03:00:43.670Z,100608.56
2023-05-02T03:03:14.533Z,100606.72
2023-05-02T03:05:46.416Z,100614.03
2023-05-02T03:08:15.652Z,100582.47
2023-05-02T03:10:43.384Z,100615.84
2023-05-02T03:13:11.966Z,100585.50
2023-05-02T03:15:54.179Z,100618.09
2023-05-02T03:18:28.683Z,100619.19
2023-05-02T03:20:57.140Z,100590.16
2023-05-02T03:23:25.435Z,100583.28
2023-05-02T03:25:57.600Z,100581.88
2023-05-02T03:28:26.962Z,100552.66
2023-05-02T03:30:54.743Z,100552.34
2023-05-02T03:33:23.863Z,100614.63
2023-05-02T03:35:51.634Z,100559.50
2023-05-02T03:38:21.027Z,100600.38
2023-05-02T03:40:50.279Z,100609.78
2023-05-02T03:43:18.735Z,100595.09
2023-05-02T03:45:48.691Z,100583.91
2023-05-02T03:48:17.469Z,100618.09
2023-05-02T03:50:45.188Z,100583.75
2023-05-02T03:53:13.121Z,100588.31
2023-05-02T03:55:50.098Z,100609.38
2023-05-02T03:58:27.105Z,100548.81
2023-05-02T04:00:55.438Z,100535.78
2023-05-02T04:03:24.485Z,100565.97
2023-05-02T04:05:52.700Z,100583.66
2023-05-02T04:08:20.524Z,100596.81
2023-05-02T04:10:52.142Z,100590.53
2023-05-02T04:13:20.339Z,100563.63
2023-05-02T04:15:51.116Z,100588.88
2023-05-02T04:18:22.471Z,100576.75
2023-05-02T04:20:51.411Z,100576.69
2023-05-02T04:23:20.885Z,100571.72
2023-05-02T04:25:58.480Z,100592.34
2023-05-02T04:28:35.783Z,100603.19
2023-05-02T04:31:04.658Z,100591.56
2023-05-02T04:33:33.531Z,100624.56
2023-05-02T04:36:01.413Z,100597.44
2023-05-02T04:38:29.506Z,100593.72
2023-05-02T04:40:57.235Z,100616.03
2023-05-02T04:43:32.903Z,100606.97
2023-05-02T04:46:03.118Z,100619.19
2023-05-02T04:48:37.426Z,100589.06
2023-05-02T04:51:05.505Z,100632.63
2023-05-02T04:53:33.632Z,100610.28
2023-05-02T04:56:01.605Z,100623.53
2023-05-02T04:58:30.842Z,100631.25
2023-05-02T05:01:02.729Z,100650.09
2023-05-02T05:03:31.252Z,100660.22
2023-05-02T05:05:59.442Z,100627.31
2023-05-02T05:08:28.508Z,100646.63
2023-05-02T05:10:58.630Z,100669.91
2023-05-02T05:13:27.190Z,100652.72
2023-05-02T05:15:54.988Z,100617.59
2023-05-02T05:18:27.137Z,100669.69
2023-05-02T05:20:56.030Z,100680.75
2023-05-02T05:23:23.850Z,100660.50
2023-05-02T05:25:51.996Z,100668.91
2023-05-02T05:28:19.895Z,100685.63
2023-05-02T05:30:48.532Z,100686.44
2023-05-02T05:33:21.431Z,100694.63
2023-05-02T05:35:50.149Z,100654.84
2023-05-02T05:38:17.892Z,100677.09
2023-05-02T05:40:51.076Z,100688.03
2023-05-02T05:43:19.514Z,100705.38
2023-05-02T05:45:47.546Z,100657.88
2023-05-02T05:48:15.865Z,100698.47
2023-05-02T05:50:46.696Z,100680.16
2023-05-02T05:53:14.923Z,100667.09
2023-05-02T05:55:44.283Z,100654.78
2023-05-02T05:58:12.388Z,100662.34
2023-05-02T06:00:42.450Z,100687.13
2023-05-02T06:03:10.493Z,100669.44
2023-05-02T06:05:39.078Z,100671.84
2023-05-02T06:08:06.857Z,100706.19
2023-05-02T06:10:34.941Z,100695.66
2023-05-02T06:13:03.484Z,100679.16
2023-05-02T06:15:37.921Z,100661.25
2023-05-02T06:18:07.395Z,100641.28
2023-05-02T06:20:36.903Z,100579.38
2023-05-02T06:23:05.120Z,100672.06
2023-05-02T06:25:34.186Z,100678.53
2023-05-02T06:28:01.991Z,100721.25
2023-05-02T06:30:29.746Z,100659.31
2023-05-02T06:32:57.685Z,100559.47
2023-05-02T06:35:25.377Z,100686.22
2023-05-02T06:37:53.237Z,100691.25
2023-05-02T06:40:21.390Z,100704.84
2023-05-02T06:42:49.121Z,100711.44
2023-05-02T06:45:16.959Z,100711.44
2023-05-02T06:47:44.775Z,100696.56
2023-05-02T06:50:12.604Z,100684.00
2023-05-02T06:52:40.365Z,100709.63
2023-05-02T06:55:08.730Z,100715.59
2023-05-02T06:57:36.546Z,100696.13
2023-05-02T07:00:05.152Z,100725.22
2023-05-02T07:02:33.114Z,100710.19
2023-05-02T07:05:00.973Z,100715.88
2023-05-02T07:07:28.770Z,100685.69
2023-05-02T07:09:56.869Z,100733.19
2023-05-02T07:12:24.600Z,100675.06
2023-05-02T07:14:52.758Z,100666.16
2023-05-02T07:17:21.061Z,100709.38
2023-05-02T07:19:48.908Z,100710.41
2023-05-02T07:22:16.692Z,100742.75
2023-05-02T07:24:44.694Z,100747.16
2023-05-02T07:27:13.377Z,100742.16
2023-05-02T07:29:42.842Z,100758.59
2023-05-02T07:32:11.832Z,100747.66
2023-05-02T07:34:39.524Z,100753.91
2023-05-02T07:37:07.164Z,100737.28
2023-05-02T07:39:35.111Z,100740.75
2023-05-02T07:42:04.063Z,100738.03
2023-05-02T07:44:35.173Z,100729.81
2023-05-02T07:47:03.317Z,100713.63
2023-05-02T07:49:31.544Z,100722.72
2023-05-02T07:51:59.300Z,100732.66
2023-05-02T07:54:27.780Z,100693.59
2023-05-02T07:56:58.353Z,100688.75
2023-05-02T07:59:26.203Z,100715.06
2023-05-02T08:01:54.048Z,100741.69
2023-05-02T08:04:23.183Z,100734.06
2023-05-02T08:06:51.146Z,100749.16
2023-05-02T08:09:18.872Z,100735.91
2023-05-02T08:11:47.078Z,100745.78
2023-05-02T08:14:16.395Z,100749.03
2023-05-02T08:16:46.235Z,100738.00
2023-05-02T08:19:15.071Z,100735.25
2023-05-02T08:21:43.066Z,100671.72
2023-05-02T08:24:10.925Z,100743.44
2023-05-02T08:26:38.765Z,100732.72
2023-05-02T08:29:06.825Z,100719.66
2023-05-02T08:31:34.627Z,100704.28
2023-05-02T08:34:02.588Z,100750.22
2023-05-02T08:36:30.566Z,100709.75
2023-05-02T08:38:58.758Z,100735.97
2023-05-02T08:41:29.781Z,100739.50
2023-05-02T08:43:58.135Z,100705.41
2023-05-02T08:46:27.319Z,100695.78
2023-05-02T08:48:59.070Z,100755.38
2023-05-02T08:51:29.425Z,100743.75
2023-05-02T08:53:58.328Z,100725.94
2023-05-02T08:56:26.419Z,100733.22
2023-05-02T08:58:54.255Z,100719.78
2023-05-02T09:01:24.522Z,100761.06
2023-05-02T09:03:52.796Z,100726.25
2023-05-02T09:06:22.184Z,100746.19
2023-05-02T09:08:54.703Z,100748.50
2023-05-02T09:11:22.489Z,100759.13
2023-05-02T09:13:52.291Z,100724.88
2023-05-02T09:16:25.906Z,100716.09
2023-05-02T09:18:56.112Z,100749.47
2023-05-02T09:21:37.279Z,100724.06
2023-05-02T09:24:19.443Z,100740.94
2023-05-02T09:27:05.350Z,100720.34
2023-05-02T09:29:38.983Z,100745.94
2023-05-02T09:32:07.420Z,100751.81
2023-05-02T09:34:37.580Z,100755.06
2023-05-02T09:37:06.545Z,100749.09
2023-05-02T09:39:37.105Z,100692.13
2023-05-02T09:42:05.019Z,100757.91
2023-05-02T09:44:43.207Z,100746.13
2023-05-02T09:47:13.484Z,100744.22
2023-05-02T09:49:49.467Z,100750.22
2023-05-02T09:52:20.146Z,100744.09
2023-05-02T09:54:50.753Z,100746.34
2023-05-02T09:57:18.953Z,100710.91
2023-05-02T09:59:57.194Z,100724.03
2023-05-02T10:02:26.348Z,100738.03
2023-05-02T10:04:57.378Z,100723.44
2023-05-02T10:07:26.520Z,100706.81
2023-05-02T10:09:58.712Z,100718.22
2023-05-02T10:12:29.270Z,100688.59
2023-05-02T10:15:03.374Z,100702.22
2023-05-02T10:17:34.529Z,100697.69
2023-05-02T10:20:07.565Z,100694.81
2023-05-02T10:22:37.039Z,100685.31
2023-05-02T10:25:05.159Z,100706.94
2023-05-02T10:27:34.087Z,100715.22
2023-05-02T10:30:06.978Z,100708.13
2023-05-02T10:32:37.260Z,100670.41
2023-05-02T10:35:07.295Z,100682.91
2023-05-02T10:37:37.082Z,100718.47
2023-05-02T10:40:06.450Z,100713.00
2023-05-02T10:42:39.420Z,100705.88
2023-05-02T10:45:37.344Z,100689.13
2023-05-02T10:48:27.855Z,100676.03
2023-05-02T10:51:02.075Z,100680.25
2023-05-02T10:53:36.833Z,100678.97
2023-05-02T10:56:15.648Z,100680.81
2023-05-02T10:58:45.424Z,100661.22
2023-05-02T11:01:26.529Z,100693.25
2023-05-02T11:03:59.253Z,100658.41
2023-05-02T11:06:32.719Z,100664.56
2023-05-02T11:09:29.818Z,100675.13
2023-05-02T11:11:58.075Z,100644.09
2023-05-02T11:14:25.797Z,100671.09
2023-05-02T11:17:04.596Z,100671.09
2023-05-02T11:19:38.519Z,100674.03
2023-05-02T11:22:19.276Z,100672.41
2023-05-02T11:24:48.722Z,100659.28
2023-05-02T11:27:38.212Z,100653.38
2023-05-02T11:30:07.037Z,100660.78
2023-05-02T11:32:44.240Z,100650.63
2023-05-02T11:35:23.757Z,100630.94
2023-05-02T11:37:58.124Z,100656.78
2023-05-02T11:40:27.873Z,100633.50
2023-05-02T11:42:56.654Z,100655.34
2023-05-02T11:45:34.348Z,100651.16
2023-05-02T11:48:05.070Z,100611.75
2023-05-02T11:50:34.379Z,100636.00
2023-05-02T11:53:02.198Z,100656.50
2023-05-02T11:55:30.296Z,100655.84
2023-05-02T11:57:58.228Z,100616.25
2023-05-02T12:00:28.660Z,100636.13
2023-05-02T12:02:56.631Z,100645.66
2023-05-02T12:05:31.899Z,100618.56
2023-05-02T12:08:01.556Z,100592.59
2023-05-02T12:10:38.843Z,100648.13
2023-05-02T12:13:10.072Z,100625.69
2023-05-02T12:15:39.457Z,100625.22
2023-05-02T12:18:08.309Z,100592.41
2023-05-02T12:20:38.808Z,100596.63
2023-05-02T12:23:08.306Z,100630.69
2023-05-02T12:25:43.099Z,100641.41
2023-05-02T12:28:11.527Z,100624.88
2023-05-02T12:30:41.716Z,100435.25
2023-05-02T12:33:10.263Z,100401.47
2023-05-02T12:35:38.574Z,100680.41
2023-05-02T12:38:30.194Z,100568.69
2023-05-02T12:41:03.367Z,100463.13
2023-05-02T12:43:46.793Z,100629.84
2023-05-02T12:46:20.136Z,100450.38
2023-05-02T12:49:10.326Z,100576.56
2023-05-02T12:51:59.115Z,100431.84
2023-05-02T12:54:32.925Z,100553.19
2023-05-02T12:57:06.093Z,100658.34
2023-05-02T12:59:34.543Z,100559.81
2023-05-02T13:02:05.633Z,100606.00
2023-05-02T13:04:42.365Z,100484.66
2023-05-02T13:07:11.634Z,100528.88
2023-05-02T13:09:44.659Z,100366.50
2023-05-02T13:12:12.797Z,100554.78
2023-05-02T13:14:41.075Z,100362.00
2023-05-02T13:17:09.307Z,100456.75
2023-05-02T13:19:38.769Z,100506.22
2023-05-02T13:22:09.019Z,100434.81
2023-05-02T13:24:37.014Z,100532.81
2023-05-02T13:27:05.389Z,100560.28
2023-05-02T13:29:33.278Z,100459.16
2023-05-02T13:32:01.368Z,100650.75
2023-05-02T13:34:29.140Z,100604.19
2023-05-02T13:36:56.861Z,100644.09
2023-05-02T13:39:24.546Z,100645.91
2023-05-02T13:41:52.264Z,100647.53
2023-05-02T13:44:20.011Z,100616.31
2023-05-02T13:46:47.991Z,100638.91
2023-05-02T13:49:15.776Z,100620.03
2023-05-02T13:51:43.609Z,100640.84
2023-05-02T13:54:11.949Z,100647.03
2023-05-02T13:56:40.035Z,100648.75
2023-05-02T13:59:10.247Z,100648.75
2023-05-02T14:01:40.711Z,100615.81
2023-05-02T14:04:09.208Z,100601.28
2023-05-02T14:06:38.012Z,100638.81
2023-05-02T14:09:07.337Z,100620.34
2023-05-02T14:11:35.121Z,100643.59
2023-05-02T14:14:02.929Z,100602.59
2023-05-02T14:16:30.933Z,100609.22
2023-05-02T14:18:59.008Z,100627.06
2023-05-02T14:21:27.372Z,100593.09
2023-05-02T14:23:55.037Z,100602.34
2023-05-02T14:26:22.801Z,100615.25
2023-05-02T14:28:50.678Z,100572.75
2023-05-02T14:31:18.564Z,100596.66
2023-05-02T14:33:46.490Z,100613.13
2023-05-02T14:36:14.424Z,100614.78
2023-05-02T14:38:42.148Z,100607.16
2023-05-02T14:41:10.339Z,100587.03
2023-05-02T14:43:39.572Z,100612.38
2023-05-02T14:46:07.414Z,100596.22
2023-05-02T14:48:35.176Z,100615.63
2023-05-02T14:51:06.681Z,100609.31
2023-05-02T14:53:34.424Z,100601.69
2023-05-02T14:56:02.308Z,100618.38
2023-05-02T14:58:30.152Z,100608.50
2023-05-02T15:00:58.285Z,100580.88
2023-05-02T15:03:26.066Z,100602.94
2023-05-02T15:05:53.748Z,100581.97
2023-05-02T15:08:21.542Z,100622.84
2023-05-02T15:10:49.234Z,100612.31
2023-05-02T15:13:17.055Z,100620.72
2023-05-02T15:15:47.722Z,100603.47
2023-05-02T15:18:15.494Z,100603.28
2023-05-02T15:20:44.704Z,100617.47
2023-05-02T15:23:12.316Z,100614.75
2023-05-02T15:25:40.100Z,100617.16
2023-05-02T15:28:08.367Z,100569.19
2023-05-02T15:30:36.625Z,100608.72
2023-05-02T15:33:04.389Z,100588.56
2023-05-02T15:35:32.134Z,100595.34
2023-05-02T15:38:00.029Z,100591.00
2023-05-02T15:40:28.541Z,100589.69
2023-05-02T15:42:56.320Z,100584.03
2023-05-02T15:45:24.167Z,100578.38
2023-05-02T15:47:53.214Z,100616.31
2023-05-02T15:50:21.172Z,100597.28
2023-05-02T15:52:49.119Z,100601.31
2023-05-02T15:55:17.049Z,100566.75
2023-05-02T15:57:44.794Z,100617.63
2023-05-02T16:00:17.076Z,100597.41
2023-05-02T16:02:45.270Z,100579.34
2023-05-02T16:05:13.405Z,100579.66
2023-05-02T16:07:42.174Z,100612.13
2023-05-02T16:10:10.075Z,100585.13
2023-05-02T16:12:37.856Z,100619.84
2023-05-02T16:15:06.524Z,100593.72
2023-05-02T16:17:34.434Z,100600.16
2023-05-02T16:20:02.609Z,100613.09
2023-05-02T16:22:30.873Z,100619.84
2023-05-02T16:24:58.629Z,100615.66
2023-05-02T16:27:26.984Z,100595.94
2023-05-02T16:29:55.056Z,100601.16
2023-05-02T16:32:23.993Z,100604.50
2023-05-02T16:34:51.929Z,100588.69
2023-05-02T16:37:19.891Z,100610.97
2023-05-02T16:39:47.933Z,100606.13
2023-05-02T16:42:16.776Z,100621.16
2023-05-02T16:44:44.575Z,100578.66
2023-05-02T16:47:12.493Z,100601.41
2023-05-02T16:49:40.386Z,100609.50
2023-05-02T16:52:08.301Z,100583.66
2023-05-02T16:54:36.148Z,100600.94
2023-05-02T16:57:04.132Z,100618.38
2023-05-02T16:59:31.863Z,100603.31
2023-05-02T17:01:59.882Z,100625.81
2023-05-02T17:04:27.996Z,100613.69
2023-05-02T17:06:59.050Z,100626.91
2023-05-02T17:09:27.016Z,100580.25
2023-05-02T17:11:55.020Z,100626.91
2023-05-02T17:14:24.420Z,100600.94
2023-05-02T17:16:52.375Z,100588.84
2023-05-02T17:19:22.467Z,100616.94
2023-05-02T17:21:52.235Z,100587.88
2023-05-02T17:24:22.954Z,100607.09
2023-05-02T17:26:54.540Z,100583.78
2023-05-02T17:29:22.178Z,100625.94
2023-05-02T17:31:49.969Z,100548.84
2023-05-02T17:34:17.943Z,100617.66
2023-05-02T17:36:46.475Z,100618.63
2023-05-02T17:39:16.069Z,100575.31
2023-05-02T17:41:46.941Z,100621.69
2023-05-02T17:44:15.872Z,100624.72
2023-05-02T17:46:43.763Z,100621.16
2023-05-02T17:49:11.550Z,100584.75
2023-05-02T17:51:39.439Z,100623.88
2023-05-02T17:54:07.322Z,100615.31
2023-05-02T17:56:36.920Z,100581.00
2023-05-02T17:59:05.145Z,100607.06
2023-05-02T18:01:35.595Z,100633.72
2023-05-02T18:04:08.017Z,100644.84
2023-05-02T18:06:36.017Z,100623.19
2023-05-02T18:09:03.797Z,100638.38
2023-05-02T18:11:38.775Z,100625.25
2023-05-02T18:14:07.267Z,100634.72
2023-05-02T18:16:36.305Z,100662.34
2023-05-02T18:19:04.350Z,100601.25
2023-05-02T18:21:34.874Z,100624.94
2023-05-02T18:24:02.675Z,100630.47
2023-05-02T18:26:30.519Z,100600.88
2023-05-02T18:28:58.370Z,100657.13
2023-05-02T18:31:26.403Z,100663.41
2023-05-02T18:33:54.736Z,100623.13
2023-05-02T18:36:27.444Z,100644.47
2023-05-02T18:38:56.515Z,100675.66
2023-05-02T18:41:27.322Z,100637.31
2023-05-02T18:43:55.187Z,100671.94
2023-05-02T18:46:23.119Z,100633.22
2023-05-02T18:48:50.910Z,100658.78
2023-05-02T18:51:18.782Z,100605.53
2023-05-02T18:53:46.713Z,100687.31
2023-05-02T18:56:14.772Z,100685.72
2023-05-02T18:58:42.601Z,100644.28
2023-05-02T19:01:17.036Z,100657.72
2023-05-02T19:03:44.981Z,100673.19
2023-05-02T19:06:14.796Z,100695.69
2023-05-02T19:08:44.808Z,100689.44
2023-05-02T19:11:13.169Z,100639.69
2023-05-02T19:13:42.563Z,100701.97
2023-05-02T19:16:14.538Z,100672.66
2023-05-02T19:18:43.595Z,100685.41
2023-05-02T19:21:14.433Z,100700.06
2023-05-02T19:23:43.326Z,100713.66
2023-05-02T19:26:12.480Z,100693.91
2023-05-02T19:28:40.626Z,100659.94
2023-05-02T19:31:10.554Z,100660.88
2023-05-02T19:33:40.599Z,100707.66
2023-05-02T19:36:08.371Z,100700.56
2023-05-02T19:38:42.438Z,100694.72
2023-05-02T19:41:10.606Z,100603.53
2023-05-02T19:43:38.573Z,100720.31
2023-05-02T19:46:06.635Z,100726.91
2023-05-02T19:48:34.778Z,100725.25
2023-05-02T19:51:04.168Z,100691.31
2023-05-02T19:53:33.173Z,100718.91
2023-05-02T19:56:03.230Z,100735.94
2023-05-02T19:58:31.396Z,100720.84
2023-05-02T20:00:59.973Z,100713.06
2023-05-02T20:03:28.114Z,100698.81
2023-05-02T20:05:57.702Z,100709.34
2023-05-02T20:08:28.031Z,100722.28
2023-05-02T20:10:56.548Z,100753.34
2023-05-02T20:13:24.506Z,100753.66
2023-05-02T20:15:53.683Z,100757.50
2023-05-02T20:18:21.688Z,100736.28
2023-05-02T20:20:49.738Z,100761.97
2023-05-02T20:23:17.466Z,100736.69
2023-05-02T20:25:46.467Z,100742.59
2023-05-02T20:28:14.265Z,100761.31
2023-05-02T20:30:43.940Z,100779.97
2023-05-02T20:33:16.149Z,100778.22
2023-05-02T20:35:45.651Z,100792.94
2023-05-02T20:38:13.445Z,100787.56
2023-05-02T20:40:42.845Z,100782.91
2023-05-02T20:43:12.077Z,100721.56
2023-05-02T20:45:40.268Z,100735.75
2023-05-02T20:48:08.251Z,100791.69
2023-05-02T20:50:36.459Z,100765.28
2023-05-02T20:53:04.822Z,100770.13
2023-05-02T20:55:32.661Z,100769.03
2023-05-02T20:58:00.502Z,100725.78
2023-05-02T21:00:29.046Z,100782.00
2023-05-02T21:02:56.942Z,100764.06
2023-05-02T21:05:27.026Z,100759.81
2023-05-02T21:07:54.883Z,100766.72
2023-05-02T21:10:22.873Z,100776.44
2023-05-02T21:12:50.734Z,100805.38
2023-05-02T21:15:18.788Z,100793.94
2023-05-02T21:17:46.702Z,100785.00
2023-05-02T21:20:14.577Z,100808.31
2023-05-02T21:22:42.229Z,100805.09
2023-05-02T21:25:10.389Z,100811.38
2023-05-02T21:27:38.351Z,100768.75
2023-05-02T21:30:06.995Z,100784.03
2023-05-02T21:32:34.739Z,100778.78
2023-05-02T21:35:02.712Z,100799.50
2023-05-02T21:37:33.682Z,100806.00
2023-05-02T21:40:01.769Z,100821.78
2023-05-02T21:42:29.979Z,100789.81
2023-05-02T21:44:58.403Z,100804.88
2023-05-02T21:47:26.413Z,100758.22
2023-05-02T21:49:55.884Z,100792.41
2023-05-02T21:52:23.820Z,100795.78
2023-05-02T21:54:52.804Z,100747.28
2023-05-02T21:57:20.790Z,100805.38
2023-05-02T21:59:48.661Z,100796.47
2023-05-02T22:02:17.850Z,100817.13
2023-05-02T22:04:48.284Z,100810.03
2023-05-02T22:07:16.169Z,100804.88
2023-05-02T22:09:43.958Z,100802.56
2023-05-02T22:12:11.838Z,100803.75
2023-05-02T22:14:45.302Z,100809.22
2023-05-02T22:17:13.958Z,100801.00
2023-05-02T22:19:42.033Z,100743.63
2023-05-02T22:22:09.817Z,100781.69
2023-05-02T22:24:37.644Z,100752.34
2023-05-02T22:27:07.448Z,100792.31
2023-05-02T22:29:35.244Z,100800.94
2023-05-02T22:32:03.063Z,100798.50
2023-05-02T22:34:30.870Z,100787.47
2023-05-02T22:36:58.629Z,100767.75
2023-05-02T22:39:26.416Z,100787.09
2023-05-02T22:41:54.197Z,100788.28
2023-05-02T22:44:22.104Z,100780.81
2023-05-02T22:46:50.088Z,100813.09
2023-05-02T22:49:19.955Z,100790.41
2023-05-02T22:51:48.208Z,100774.22
2023-05-02T22:54:17.009Z,100781.78
2023-05-02T22:56:44.996Z,100782.91
2023-05-02T22:59:12.809Z,100805.19
2023-05-02T23:01:41.598Z,100806.31
2023-05-02T23:04:09.947Z,100737.34
2023-05-02T23:06:37.792Z,100803.56
2023-05-02T23:09:07.053Z,100776.63
2023-05-02T23:11:34.722Z,100783.94
2023-05-02T23:14:02.588Z,100763.91
2023-05-02T23:16:30.465Z,100761.25
2023-05-02T23:18:58.136Z,100799.50
2023-05-02T23:21:26.286Z,100808.84
2023-05-02T23:23:54.169Z,100765.28
2023-05-02T23:26:21.920Z,100814.22
2023-05-02T23:28:49.512Z,100782.00
2023-05-02T23:31:17.425Z,100780.09
2023-05-02T23:33:45.913Z,100727.63
2023-05-02T23:36:13.594Z,100788.28
2023-05-02T23:38:41.962Z,100792.63
2023-05-02T23:41:10.252Z,100770.13
2023-05-02T23:43:38.262Z,100791.50
2023-05-02T23:46:06.498Z,100754.56
2023-05-02T23:48:34.228Z,100754.34
2023-05-02T23:51:02.526Z,100757.19
2023-05-02T23:53:30.242Z,100765.38
2023-05-02T23:55:59.787Z,100789.19
2023-05-02T23:58:27.619Z,100777.84
